Time;durP1;ratioP1;P1;durP2;ratioP2;P2;SDS_P1;SDS_P2;PMS_P1;PMS_P2;Temp;Humidity;BMP_temperature;BMP_pressure;BME280_temperature;BME280_humidity;BME280_pressure;Samples;Min_cycle;Max_cycle;Signal;HPM_P1;HPM_P2
2022/10/23 00:02:32;;;;;;;35.50;19.47;;;;;;;12.36;87.46;100961.30;1608401;88;21058;-76
2022/10/23 00:05:17;;;;;;;35.35;19.07;;;;;;;12.37;87.46;100961.72;1606648;88;21549;-76
2022/10/23 00:08:03;;;;;;;46.00;19.23;;;;;;;12.39;87.48;100959.95;1633154;86;21422;-76
2022/10/23 00:10:48;;;;;;;29.15;19.85;;;;;;;12.41;87.51;100958.63;1615589;88;21537;-76
2022/10/23 00:13:33;;;;;;;55.17;19.27;;;;;;;12.42;87.53;100957.30;1642421;86;21503;-76
2022/10/23 00:16:18;;;;;;;55.60;20.57;;;;;;;12.43;87.51;100951.67;1616244;87;21540;-76
2022/10/23 00:19:04;;;;;;;33.00;19.52;;;;;;;12.46;87.54;100950.33;1634997;87;21112;-76
2022/10/23 00:21:49;;;;;;;43.23;20.40;;;;;;;12.48;87.57;100952.41;1625994;87;21056;-76
2022/10/23 00:24:34;;;;;;;36.25;18.57;;;;;;;12.51;87.58;100957.55;1625978;86;21119;-76
2022/10/23 00:27:19;;;;;;;33.60;19.95;;;;;;;12.51;87.60;100950.62;1632591;87;21569;-76
2022/10/23 00:30:06;;;;;;;38.33;19.02;;;;;;;12.53;87.59;100948.00;1602604;89;21160;-76
2022/10/23 00:32:51;;;;;;;32.30;19.87;;;;;;;12.55;87.63;100937.16;1612310;88;28740;-76
2022/10/23 00:35:40;;;;;;;38.03;19.67;;;;;;;12.56;87.68;100937.56;1641219;86;21117;-76
2022/10/23 00:38:25;;;;;;;39.25;19.50;;;;;;;12.57;87.65;100936.23;1623755;86;21609;-76
2022/10/23 00:41:18;;;;;;;31.95;18.90;;;;;;;12.60;87.66;100943.11;1636774;86;21071;-76
2022/10/23 00:44:21;;;;;;;33.58;19.10;;;;;;;12.62;87.65;100939.19;1609042;87;22213;-76
2022/10/23 00:47:06;;;;;;;62.08;20.00;;;;;;;12.63;87.65;100933.97;1610589;87;21124;-76
2022/10/23 00:49:51;;;;;;;36.55;20.08;;;;;;;12.64;87.71;100939.58;1610127;88;21140;-76
2022/10/23 00:52:41;;;;;;;28.20;19.45;;;;;;;12.66;87.67;100927.88;1609205;88;21104;-76
2022/10/23 00:55:28;;;;;;;36.35;19.42;;;;;;;12.68;87.68;100919.17;1614527;88;21088;-76
2022/10/23 00:58:16;;;;;;;46.33;19.98;;;;;;;12.69;87.68;100923.48;1610383;87;21124;-76
2022/10/23 01:01:01;;;;;;;49.90;21.17;;;;;;;12.71;87.72;100919.11;1612441;88;21668;-76
2022/10/23 01:03:48;;;;;;;47.55;21.90;;;;;;;12.71;87.70;100920.41;1613555;88;21683;-77
2022/10/23 01:07:18;;;;;;;65.00;21.75;;;;;;;12.73;87.76;100929.02;1609258;87;21398;-77
2022/10/23 01:10:20;;;;;;;49.88;23.35;;;;;;;12.73;87.77;100929.02;1557701;91;20970;-77
2022/10/23 01:13:37;;;;;;;39.40;23.07;;;;;;;12.76;87.75;100928.11;1556175;91;21092;-77
2022/10/23 01:16:41;;;;;;;53.28;22.58;;;;;;;12.75;87.76;100928.55;1560588;90;21078;-76
2022/10/23 01:19:43;;;;;;;60.03;22.17;;;;;;;12.79;87.76;100934.53;1559401;91;21005;-76
2022/10/23 01:22:52;;;;;;;66.90;22.48;;;;;;;12.80;87.81;100937.54;1555148;91;21509;-76
2022/10/23 01:26:14;;;;;;;42.88;21.95;;;;;;;12.81;87.79;100932.77;1558001;91;21672;-76
2022/10/23 01:29:10;;;;;;;63.68;20.95;;;;;;;12.82;87.84;100932.73;1555204;90;21619;-76
2022/10/23 01:32:24;;;;;;;32.30;19.82;;;;;;;12.83;87.83;100930.98;1560488;90;21030;-76
2022/10/23 01:35:36;;;;;;;47.38;20.32;;;;;;;12.84;87.90;100932.70;1566864;90;21516;-76
2022/10/23 01:38:35;;;;;;;29.12;19.20;;;;;;;12.85;87.89;100927.92;1559788;90;21034;-76
2022/10/23 01:41:43;;;;;;;45.15;18.92;;;;;;;12.86;87.92;100935.67;1614451;86;20922;-76
2022/10/23 01:44:42;;;;;;;35.38;18.82;;;;;;;12.88;87.92;100935.64;1637888;86;20922;-76
2022/10/23 01:47:30;;;;;;;51.73;20.37;;;;;;;12.89;87.94;100934.76;1639606;86;20981;-76
2022/10/23 01:50:17;;;;;;;50.33;20.60;;;;;;;12.91;87.94;100934.28;1633837;86;21140;-76
2022/10/23 01:53:04;;;;;;;47.62;20.02;;;;;;;12.91;87.93;100932.98;1617440;87;22204;-76
2022/10/23 01:55:50;;;;;;;30.77;18.77;;;;;;;12.92;87.96;100935.99;1625651;87;21060;-76
2022/10/23 01:58:37;;;;;;;27.15;19.98;;;;;;;12.91;87.95;100933.84;1633399;87;21121;-76
2022/10/23 02:01:27;;;;;;;28.50;21.12;;;;;;;12.92;87.94;100932.10;1613336;87;21139;-76
2022/10/23 02:04:17;;;;;;;26.45;18.95;;;;;;;12.92;87.96;100935.55;1601726;89;21132;-76
2022/10/23 02:07:03;;;;;;;24.72;19.50;;;;;;;12.94;87.96;100935.52;1602912;89;21117;-76
2022/10/23 02:09:48;;;;;;;37.08;19.52;;;;;;;12.94;87.95;100938.12;1645687;86;21096;-76
2022/10/23 02:12:47;;;;;;;43.60;19.42;;;;;;;12.95;87.93;100937.67;1634822;87;21164;-76
2022/10/23 02:15:39;;;;;;;25.16;19.76;;;;;;;12.95;87.95;100937.23;1537675;86;5001690;-76
2022/10/23 02:18:57;;;;;;;30.35;18.77;;;;;;;12.96;87.85;100943.28;1637796;84;21111;-76
2022/10/23 02:22:15;;;;;;;21.85;19.60;;;;;;;12.96;87.93;100944.58;1636767;86;21136;-76
2022/10/23 02:25:13;;;;;;;21.33;18.62;;;;;;;12.95;87.96;100947.61;1618712;87;21108;-76
2022/10/23 02:28:05;;;;;;;27.73;20.23;;;;;;;12.95;87.98;100946.76;1633926;87;21088;-76
2022/10/23 02:30:50;;;;;;;24.30;19.87;;;;;;;12.94;87.96;100949.80;1594817;88;21088;-76
2022/10/23 02:33:36;;;;;;;26.37;21.90;;;;;;;12.93;87.98;100948.94;1614666;88;21514;-76
2022/10/23 02:36:21;;;;;;;28.30;21.77;;;;;;;12.94;87.97;100944.61;1604683;87;21160;-76
2022/10/23 02:39:06;;;;;;;27.17;22.05;;;;;;;12.94;87.99;100956.28;1633514;86;21061;-76
2022/10/23 02:42:05;;;;;;;29.32;22.07;;;;;;;12.92;87.99;100953.72;1605870;88;21663;-76
2022/10/23 02:45:13;;;;;;;28.27;22.42;;;;;;;12.93;88.00;100953.28;1614894;87;21112;-76
2022/10/23 02:48:10;;;;;;;27.67;21.95;;;;;;;12.93;88.00;100954.13;1610205;88;21079;-76
2022/10/23 02:51:06;;;;;;;28.95;23.65;;;;;;;12.93;87.99;100952.84;1615675;87;21092;-76
2022/10/23 02:54:15;;;;;;;30.30;22.73;;;;;;;12.94;87.98;100957.58;1637393;86;21025;-76
2022/10/23 02:57:09;;;;;;;31.07;23.32;;;;;;;12.92;87.99;100958.91;1615181;87;21132;-76
2022/10/23 03:00:02;;;;;;;30.25;23.87;;;;;;;12.91;88.00;100958.50;1623254;86;21061;-76
2022/10/23 03:03:01;;;;;;;27.70;23.02;;;;;;;12.90;87.97;100956.79;1613315;88;21084;-76
2022/10/23 03:05:47;;;;;;;28.25;21.48;;;;;;;12.89;87.98;100964.16;1611185;88;21088;-76
2022/10/23 03:08:43;;;;;;;27.48;20.32;;;;;;;12.88;87.97;100962.45;1613565;88;21065;-76
2022/10/23 03:11:28;;;;;;;;;;;;;;;12.87;87.99;100955.55;1635049;86;21406;-76
2022/10/23 03:14:13;;;;;;;29.35;19.75;;;;;;;12.88;88.11;100971.98;1635073;86;20321;-76
2022/10/23 03:16:58;;;;;;;23.75;19.32;;;;;;;12.86;87.98;100971.16;1631866;87;21566;-76
2022/10/23 03:19:44;;;;;;;26.02;19.42;;;;;;;12.85;87.94;100969.00;1631046;87;21072;-76
2022/10/23 03:22:29;;;;;;;20.45;18.25;;;;;;;12.83;87.97;100969.91;1624896;86;21077;-76
2022/10/23 03:25:14;;;;;;;23.87;19.00;;;;;;;12.81;87.95;100969.95;1634300;86;21069;-76
2022/10/23 03:27:59;;;;;;;21.10;17.98;;;;;;;12.81;87.96;100969.95;1627539;86;21581;-76
2022/10/23 03:30:44;;;;;;;23.12;18.05;;;;;;;12.80;87.97;100969.53;1637313;86;21055;-76
2022/10/23 03:33:30;;;;;;;21.85;18.07;;;;;;;12.79;87.97;100975.61;1630084;87;21083;-76
2022/10/23 03:36:15;;;;;;;22.17;18.12;;;;;;;12.78;87.96;100975.20;1634604;87;21518;-76
2022/10/23 03:39:00;;;;;;;21.45;18.42;;;;;;;12.74;87.95;100965.76;1622778;87;21076;-76
2022/10/23 03:41:45;;;;;;;22.20;17.80;;;;;;;12.74;87.94;100978.73;1625014;86;21129;-76
2022/10/23 03:44:32;;;;;;;20.35;18.07;;;;;;;12.72;87.95;100977.05;1633999;87;21064;-76
2022/10/23 03:47:17;;;;;;;20.35;18.10;;;;;;;12.71;87.97;100979.23;1617543;87;21097;-76
2022/10/23 03:50:03;;;;;;;21.55;19.25;;;;;;;12.71;87.94;100977.94;1634558;87;21118;-76
2022/10/23 03:52:48;;;;;;;20.63;18.13;;;;;;;12.68;87.94;100977.55;1630648;87;21544;-76
2022/10/23 03:55:33;;;;;;;21.68;18.57;;;;;;;12.66;87.95;100987.54;1601116;87;21109;-76
2022/10/23 03:58:18;;;;;;;25.27;18.52;;;;;;;12.66;87.96;100990.14;1649523;86;21136;-76
2022/10/23 04:01:03;;;;;;;21.07;18.77;;;;;;;12.65;87.93;100988.42;1634828;85;21139;-76
2022/10/23 04:03:48;;;;;;;19.57;17.52;;;;;;;12.64;87.98;100988.02;1609251;88;21036;-76
2022/10/23 04:06:35;;;;;;;22.30;17.57;;;;;;;12.62;87.98;100994.53;1608697;88;21084;-76
2022/10/23 04:09:19;;;;;;;19.57;17.17;;;;;;;12.61;87.98;100991.52;1637581;85;21500;-76
2022/10/23 04:12:06;;;;;;;22.15;17.37;;;;;;;12.59;88.00;100988.95;1636745;87;21010;-76
2022/10/23 04:14:51;;;;;;;22.05;18.02;;;;;;;12.60;88.03;100991.95;1629052;86;21052;-76
2022/10/23 04:17:36;;;;;;;20.37;18.07;;;;;;;12.61;88.03;100992.81;1640415;87;21410;-76
2022/10/23 04:20:21;;;;;;;20.10;18.00;;;;;;;12.62;88.05;100987.19;1639952;87;21103;-76
2022/10/23 04:23:06;;;;;;;22.58;17.85;;;;;;;12.60;88.01;100989.36;1632296;85;21132;-76
2022/10/23 04:25:56;;;;;;;19.90;17.85;;;;;;;12.60;88.02;100993.70;1599332;88;21143;-76
2022/10/23 04:28:42;;;;;;;20.17;17.48;;;;;;;12.60;88.02;100997.59;1636086;84;21099;-76
2022/10/23 04:31:27;;;;;;;19.45;16.75;;;;;;;12.59;87.99;100997.17;1634581;87;21074;-76
2022/10/23 04:34:12;;;;;;;19.60;17.45;;;;;;;12.58;88.04;100997.61;1629465;87;21069;-76
2022/10/23 04:36:57;;;;;;;20.43;17.32;;;;;;;12.57;88.06;100992.02;1626278;87;21096;-76
2022/10/23 04:39:42;;;;;;;21.52;17.27;;;;;;;12.59;88.08;100995.88;1634880;86;21496;-76
2022/10/23 04:42:27;;;;;;;26.00;17.37;;;;;;;12.58;88.08;100996.32;1631560;86;21095;-76
2022/10/23 04:45:12;;;;;;;19.62;17.00;;;;;;;12.59;88.06;100998.47;1644809;86;21521;-76
2022/10/23 04:47:57;;;;;;;20.43;17.05;;;;;;;12.57;88.06;100997.64;1632275;87;21100;-76
2022/10/23 04:50:42;;;;;;;19.02;17.17;;;;;;;12.58;88.07;100997.61;1629327;87;21140;-76
2022/10/23 04:53:28;;;;;;;20.37;17.82;;;;;;;12.58;88.08;100995.02;1614163;85;21085;-76
2022/10/23 04:56:14;;;;;;;21.25;17.27;;;;;;;12.60;88.10;100997.59;1602128;88;21680;-76
2022/10/23 04:59:00;;;;;;;;;;;;;;;12.59;88.07;100994.58;1619378;88;20953;-76
2022/10/23 05:01:44;;;;;;;17.37;15.25;;;;;;;12.60;88.19;101004.93;1606821;87;20462;-76
2022/10/23 05:04:29;;;;;;;18.50;16.50;;;;;;;12.60;88.10;101004.93;1618903;87;21383;-76
2022/10/23 05:07:15;;;;;;;18.95;17.05;;;;;;;12.59;88.10;101002.36;1612583;88;20930;-76
2022/10/23 05:10:00;;;;;;;17.65;15.93;;;;;;;12.60;88.09;101001.04;1632582;86;21493;-76
2022/10/23 05:12:45;;;;;;;18.17;16.30;;;;;;;12.60;88.10;101000.19;1617908;87;20945;-76
2022/10/23 05:15:30;;;;;;;21.33;16.27;;;;;;;12.60;88.09;101006.23;1637345;86;20945;-76
2022/10/23 05:18:32;;;;;;;19.20;16.20;;;;;;;12.60;88.09;101003.63;1610417;88;20946;-76
2022/10/23 05:21:27;;;;;;;21.15;16.25;;;;;;;12.59;88.10;101004.52;1602720;89;21421;-76
2022/10/23 05:24:11;;;;;;;17.98;15.98;;;;;;;12.59;88.13;101003.22;1609217;87;21529;-76
2022/10/23 05:26:56;;;;;;;17.00;15.20;;;;;;;12.59;88.14;101012.74;1638291;86;21427;-75
2022/10/23 05:29:41;;;;;;;16.70;14.95;;;;;;;12.60;88.13;101006.23;1611700;87;20986;-75
2022/10/23 05:32:29;;;;;;;16.57;14.85;;;;;;;12.62;88.16;101010.53;1632473;86;21421;-76
2022/10/23 05:35:21;;;;;;;17.62;15.38;;;;;;;12.63;88.17;101013.54;1624958;86;21331;-76
2022/10/23 05:38:07;;;;;;;17.42;14.98;;;;;;;12.64;88.18;101007.47;1642184;86;20934;-76
2022/10/23 05:40:53;;;;;;;15.80;14.20;;;;;;;12.65;88.17;101013.07;1615420;87;21805;-76
2022/10/23 05:43:37;;;;;;;16.67;14.63;;;;;;;12.66;88.17;101014.34;1632166;87;20982;-76
2022/10/23 05:46:22;;;;;;;17.07;13.85;;;;;;;12.67;88.19;101017.80;1633170;87;20956;-76
2022/10/23 05:49:08;;;;;;;15.93;14.28;;;;;;;12.67;88.17;101022.98;1616619;87;20993;-76
2022/10/23 05:51:52;;;;;;;16.23;14.38;;;;;;;12.67;88.20;101022.55;1615145;88;20929;-76
2022/10/23 05:54:37;;;;;;;16.57;14.93;;;;;;;12.68;88.18;101026.84;1612698;88;21469;-76
2022/10/23 05:57:22;;;;;;;18.32;14.80;;;;;;;12.71;88.19;101032.42;1613269;88;21505;-76
2022/10/23 06:00:08;;;;;;;17.27;14.28;;;;;;;12.70;88.21;101030.27;1612975;88;20937;-76
2022/10/23 06:02:53;;;;;;;18.48;14.43;;;;;;;12.71;88.23;101031.98;1615259;88;21442;-76
2022/10/23 06:05:38;;;;;;;16.80;14.58;;;;;;;12.72;88.23;101027.20;1616897;88;21332;-76
2022/10/23 06:08:24;;;;;;;16.67;14.90;;;;;;;12.75;88.23;101030.19;1618144;88;21772;-76
2022/10/23 06:11:12;;;;;;;18.27;14.45;;;;;;;12.75;88.24;101031.48;1618536;88;21280;-76
2022/10/23 06:13:56;;;;;;;18.12;14.78;;;;;;;12.76;88.22;101027.56;1639916;86;20918;-76
2022/10/23 06:16:41;;;;;;;17.92;14.65;;;;;;;12.78;88.23;101029.69;1614868;88;21605;-77
2022/10/23 06:19:26;;;;;;;17.02;15.20;;;;;;;12.78;88.21;101023.20;1604160;87;41906;-76
2022/10/23 06:22:11;;;;;;;16.77;13.80;;;;;;;12.78;88.22;101021.91;1626043;87;20985;-76
2022/10/23 06:24:56;;;;;;;18.23;14.43;;;;;;;12.79;88.22;101031.41;1617278;87;21368;-76
2022/10/23 06:27:41;;;;;;;20.43;15.40;;;;;;;12.80;88.27;101031.81;1629504;86;20921;-76
2022/10/23 06:30:26;;;;;;;21.35;15.25;;;;;;;12.81;88.26;101033.53;1611581;88;21432;-76
2022/10/23 06:33:11;;;;;;;21.77;15.03;;;;;;;12.82;88.27;101028.75;1631775;87;20924;-76
2022/10/23 06:35:56;;;;;;;20.75;15.50;;;;;;;12.84;88.29;101032.17;1610972;88;20956;-76
2022/10/23 06:38:41;;;;;;;19.30;14.87;;;;;;;12.88;88.32;101036.87;1640042;86;20929;-76
2022/10/23 06:41:26;;;;;;;17.55;14.20;;;;;;;12.91;88.33;101031.17;1641248;86;20979;-76
2022/10/23 06:44:11;;;;;;;17.57;14.80;;;;;;;12.96;88.33;101035.42;1625716;87;21417;-76
2022/10/23 06:46:56;;;;;;;17.37;14.95;;;;;;;12.99;88.34;101034.06;1619864;87;21503;-76
2022/10/23 06:49:41;;;;;;;20.37;15.32;;;;;;;13.04;88.34;101030.91;1632191;86;20999;-76
2022/10/23 06:52:30;;;;;;;17.77;16.07;;;;;;;13.11;88.29;101034.66;1624358;86;22144;-76
2022/10/23 06:55:14;;;;;;;18.77;16.30;;;;;;;13.11;88.29;101034.66;1621533;87;21432;-76
2022/10/23 06:58:00;;;;;;;21.70;16.23;;;;;;;13.16;88.35;101034.60;1615283;86;21063;-76
2022/10/23 07:00:45;;;;;;;18.92;15.50;;;;;;;13.20;88.35;101035.80;1619359;86;21092;-76
2022/10/23 07:03:30;;;;;;;18.05;16.20;;;;;;;13.24;88.35;101038.76;1618407;86;21519;-76
2022/10/23 07:06:15;;;;;;;17.55;15.32;;;;;;;13.25;88.32;101050.86;1616788;86;21120;-76
2022/10/23 07:09:01;;;;;;;17.35;15.43;;;;;;;13.29;88.36;101049.50;1615883;87;21117;-76
2022/10/23 07:11:46;;;;;;;18.27;16.27;;;;;;;13.28;88.31;101048.64;1614972;87;21186;-76
2022/10/23 07:14:31;;;;;;;16.27;14.25;;;;;;;13.29;88.31;101052.09;1625904;87;21063;-76
2022/10/23 07:17:17;;;;;;;16.85;15.15;;;;;;;13.28;88.29;101045.19;1623397;87;21111;-76
2022/10/23 07:20:02;;;;;;;21.00;16.73;;;;;;;13.27;88.30;101040.87;1621747;86;21075;-76
2022/10/23 07:22:53;;;;;;;16.65;14.63;;;;;;;13.31;88.40;101041.23;1617036;87;21159;-76
2022/10/23 07:25:38;;;;;;;23.73;15.83;;;;;;;13.36;88.44;101046.74;1617345;87;21170;-75
2022/10/23 07:28:23;;;;;;;24.07;15.48;;;;;;;13.40;88.37;101044.50;1618789;86;21152;-75
2022/10/23 07:31:09;;;;;;;20.80;15.95;;;;;;;13.48;88.42;101043.04;1632886;86;21541;-75
2022/10/23 07:33:54;;;;;;;20.27;16.30;;;;;;;13.55;88.43;101036.35;1631695;86;21061;-75
2022/10/23 07:36:39;;;;;;;16.73;14.87;;;;;;;13.67;88.51;101046.07;1623632;86;21123;-75
2022/10/23 07:39:25;;;;;;;25.48;16.23;;;;;;;13.74;88.46;101041.16;1622110;86;21929;-75
2022/10/23 07:42:10;;;;;;;17.90;15.43;;;;;;;13.82;88.42;101041.84;1625542;86;21083;-75
2022/10/23 07:44:56;;;;;;;17.65;15.45;;;;;;;13.87;88.43;101044.74;1630304;87;21071;-75
2022/10/23 07:47:41;;;;;;;21.07;14.98;;;;;;;13.97;88.50;101044.53;1614974;86;21071;-75
2022/10/23 07:50:26;;;;;;;17.45;14.70;;;;;;;14.05;88.42;101050.38;1628021;85;21143;-75
2022/10/23 07:53:19;;;;;;;20.97;15.00;;;;;;;14.10;88.42;101048.09;1626347;86;21598;-75
2022/10/23 07:56:15;;;;;;;17.45;14.33;;;;;;;14.14;88.41;101056.67;1625222;86;20979;-78
2022/10/23 07:58:59;;;;;;;17.15;14.15;;;;;;;14.18;88.26;101059.16;1630911;86;20932;-77
2022/10/23 08:01:46;;;;;;;18.37;15.10;;;;;;;14.18;88.26;101059.16;1618418;86;21014;-77
2022/10/23 08:04:31;;;;;;;23.50;14.78;;;;;;;14.18;88.35;101064.81;1623707;86;20948;-80
2022/10/23 08:07:16;;;;;;;21.52;15.18;;;;;;;14.18;88.31;101066.11;1627849;86;20978;-77
2022/10/23 08:10:02;;;;;;;17.95;15.68;;;;;;;14.18;88.36;101065.67;1623319;84;21216;-77
2022/10/23 08:12:47;;;;;;;23.80;15.15;;;;;;;14.20;88.36;101069.53;1603041;87;20989;-77
2022/10/23 08:15:32;;;;;;;21.12;15.75;;;;;;;14.17;88.31;101068.30;1626395;85;20953;-77
2022/10/23 08:18:17;;;;;;;22.37;14.83;;;;;;;14.16;88.29;101073.09;1610481;87;20964;-77
2022/10/23 08:21:03;;;;;;;17.30;15.55;;;;;;;14.13;88.28;101075.77;1225543;87;5002785;-77
2022/10/23 08:23:48;;;;;;;23.50;17.25;;;;;;;14.11;88.33;101077.55;1605483;87;21037;-77
2022/10/23 08:26:33;;;;;;;19.62;16.70;;;;;;;14.11;88.31;101078.84;1645507;84;21440;-79
2022/10/23 08:29:18;;;;;;;21.77;16.32;;;;;;;14.10;88.25;101074.53;1636362;86;21065;-79
2022/10/23 08:32:03;;;;;;;20.40;17.37;;;;;;;14.13;88.35;101080.97;1609821;87;21125;-79
2022/10/23 08:34:48;;;;;;;24.57;17.37;;;;;;;14.14;88.29;101080.93;1611446;88;21078;-79
2022/10/23 08:37:34;;;;;;;24.90;16.93;;;;;;;14.17;88.32;101081.30;1605236;87;21187;-79
2022/10/23 08:40:24;;;;;;;28.50;18.10;;;;;;;14.19;88.32;101086.03;1613482;87;21131;-79
2022/10/23 08:43:35;;;;;;;22.17;16.65;;;;;;;14.21;88.33;101089.00;1611442;87;21080;-79
2022/10/23 08:46:24;;;;;;;28.77;18.05;;;;;;;14.24;88.29;101093.28;1567215;86;5000103;-80
2022/10/23 08:49:39;;;;;;;22.52;17.15;;;;;;;14.24;88.30;101099.78;1629338;87;21066;-79
2022/10/23 08:52:32;;;;;;;22.58;17.02;;;;;;;14.24;88.27;101097.18;1614309;85;21158;-78
2022/10/23 08:55:25;;;;;;;22.15;17.62;;;;;;;14.20;88.24;101098.14;1627701;85;21085;-78
2022/10/23 08:58:24;;;;;;;26.93;19.90;;;;;;;14.18;88.25;101096.88;1626360;86;21532;-78
2022/10/23 09:01:29;;;;;;;22.90;19.30;;;;;;;14.15;88.20;101101.30;1631391;86;21672;-78
2022/10/23 09:04:15;;;;;;;25.77;20.65;;;;;;;14.08;88.14;101101.87;1618623;86;21495;-78
2022/10/23 09:07:21;;;;;;;25.35;20.75;;;;;;;14.06;88.18;101096.30;1637909;86;22168;-78
2022/10/23 09:10:34;;;;;;;28.73;20.23;;;;;;;14.06;88.25;101093.70;1640604;86;22176;-78
2022/10/23 09:13:33;;;;;;;24.30;19.40;;;;;;;14.10;88.31;101092.73;1629994;87;21082;-78
2022/10/23 09:16:41;;;;;;;28.60;20.40;;;;;;;14.13;88.32;101086.17;1621991;87;21573;-78
2022/10/23 09:19:28;;;;;;;28.00;19.35;;;;;;;14.17;88.31;101091.27;1625053;87;22291;-78
2022/10/23 09:22:13;;;;;;;27.95;19.95;;;;;;;14.19;88.25;101095.13;1616924;86;21516;-78
2022/10/23 09:24:58;;;;;;;25.32;20.72;;;;;;;14.20;88.26;101096.39;1637178;86;21071;-78
2022/10/23 09:27:51;;;;;;;23.98;20.57;;;;;;;14.24;88.28;101101.94;1638940;85;21065;-78
2022/10/23 09:30:41;;;;;;;21.85;19.52;;;;;;;14.27;88.26;101109.27;1626035;86;21120;-78
2022/10/23 09:33:27;;;;;;;24.07;19.60;;;;;;;14.25;88.16;101110.16;1646867;85;21550;-78
2022/10/23 09:36:19;;;;;;;21.87;18.57;;;;;;;14.25;88.18;101109.30;1627930;86;21149;-78
2022/10/23 09:39:04;;;;;;;23.02;18.62;;;;;;;14.27;88.23;101110.12;1636212;86;21514;-78
2022/10/23 09:41:49;;;;;;;23.20;19.07;;;;;;;14.29;88.24;101117.44;1629757;87;21127;-78
2022/10/23 09:44:35;;;;;;;24.63;19.50;;;;;;;14.30;88.19;101109.19;1631586;86;20995;-78
2022/10/23 09:47:23;;;;;;;21.50;19.17;;;;;;;14.31;88.18;101110.91;1626076;87;21103;-78
2022/10/23 09:50:20;;;;;;;22.73;19.48;;;;;;;14.29;88.14;101109.64;1623305;87;21126;-78
2022/10/23 09:53:04;;;;;;;21.00;17.87;;;;;;;14.32;88.23;101117.38;1637447;86;21068;-78
2022/10/23 09:55:53;;;;;;;23.27;19.17;;;;;;;14.36;88.23;101122.05;1648926;86;21057;-78
2022/10/23 09:58:46;;;;;;;24.00;18.12;;;;;;;14.39;88.18;101117.64;1616711;86;21400;-78
2022/10/23 10:01:35;;;;;;;23.38;18.07;;;;;;;14.39;88.18;101116.34;1625091;85;20919;-78
2022/10/23 10:04:36;;;;;;;21.62;18.25;;;;;;;14.44;88.22;101123.62;1619804;87;20992;-78
2022/10/23 10:07:25;;;;;;;23.02;18.55;;;;;;;14.47;88.16;101121.39;1635029;85;20984;-78
2022/10/23 10:10:14;;;;;;;21.42;18.23;;;;;;;14.47;88.06;101122.25;1620555;86;21084;-78
2022/10/23 10:13:13;;;;;;;21.75;18.37;;;;;;;14.47;88.06;101119.64;1634038;85;21014;-79
2022/10/23 10:16:18;;;;;;;24.18;17.25;;;;;;;14.46;88.09;101112.73;1619885;86;21610;-79
2022/10/23 10:19:14;;;;;;;21.50;17.37;;;;;;;14.49;88.11;101119.16;1639420;87;20994;-78
2022/10/23 10:22:29;;;;;;;23.12;16.42;;;;;;;14.54;88.11;101120.36;1613729;86;20975;-79
2022/10/23 10:25:43;;;;;;;23.52;17.00;;;;;;;14.57;88.17;101119.80;1631167;85;21079;-75
2022/10/23 10:28:57;;;;;;;24.12;19.62;;;;;;;14.63;88.18;101117.95;1619764;86;21421;-79
2022/10/23 10:32:07;;;;;;;28.50;19.20;;;;;;;14.66;88.12;101117.87;1637675;85;21430;-76
2022/10/23 10:35:18;;;;;;;27.60;19.62;;;;;;;14.68;88.09;101114.78;1620813;86;21416;-77
2022/10/23 10:38:11;;;;;;;22.65;20.15;;;;;;;14.70;88.08;101110.39;1514403;86;5001035;-78
2022/10/23 10:41:21;;;;;;;27.27;20.02;;;;;;;14.70;88.13;101099.53;1634543;86;20987;-77
2022/10/23 10:44:51;;;;;;;28.70;20.35;;;;;;;14.73;88.09;101105.11;1618314;86;20966;-77
2022/10/23 10:47:54;;;;;;;22.73;18.73;;;;;;;14.74;88.03;101096.41;1634504;85;20982;-77
2022/10/23 10:50:59;;;;;;;26.70;21.12;;;;;;;14.75;88.04;101098.97;1616234;86;20999;-77
2022/10/23 10:54:28;;;;;;;23.90;18.92;;;;;;;14.81;88.14;101091.00;1632932;87;20974;-77
2022/10/23 10:57:41;;;;;;;22.48;18.40;;;;;;;14.87;88.14;101090.84;1618068;87;21091;-77
2022/10/23 11:00:30;;;;;;;27.52;18.73;;;;;;;14.90;88.05;101088.61;1641605;85;21384;-77
2022/10/23 11:03:39;;;;;;;20.70;16.73;;;;;;;14.94;88.05;101084.18;1629405;86;20931;-76
2022/10/23 11:06:28;;;;;;;21.02;18.25;;;;;;;14.95;88.04;101084.14;1646201;85;21891;-75
2022/10/23 11:09:28;;;;;;;22.77;17.42;;;;;;;14.98;88.02;101089.27;1627814;86;20971;-76
2022/10/23 11:12:24;;;;;;;29.00;18.23;;;;;;;14.96;87.86;101086.30;1670522;82;21441;-77
2022/10/23 11:15:20;;;;;;;23.32;17.17;;;;;;;14.94;87.94;101093.30;1668608;85;20948;-77
2022/10/23 11:18:08;;;;;;;;;;;;;;;14.88;87.79;101096.47;1646976;86;21307;-78
2022/10/23 11:21:07;;;;;;;18.98;15.85;;;;;;;14.82;87.79;101096.62;1668994;83;20111;-77
2022/10/23 11:24:29;;;;;;;20.75;17.48;;;;;;;14.80;87.87;101092.34;1671189;83;21494;-77
2022/10/23 11:27:40;;;;;;;24.80;17.00;;;;;;;14.78;87.86;101094.98;1669175;82;20924;-76
2022/10/23 11:30:45;;;;;;;20.23;15.85;;;;;;;14.76;87.83;101088.97;1667241;83;20948;-79
2022/10/23 11:33:58;;;;;;;19.77;15.78;;;;;;;14.77;87.90;101085.91;1665294;85;20971;-78
2022/10/23 11:36:55;;;;;;;18.87;15.45;;;;;;;14.78;87.90;101081.97;1627785;86;21010;-78
2022/10/23 11:39:41;;;;;;;17.92;16.00;;;;;;;14.79;87.85;101071.97;1641696;85;20925;-78
2022/10/23 11:42:31;;;;;;;23.47;18.02;;;;;;;14.83;87.95;101066.23;1635403;85;21436;-78
2022/10/23 11:45:38;;;;;;;19.98;17.57;;;;;;;14.88;87.95;101067.82;1627783;85;32774;-78
2022/10/23 11:48:38;;;;;;;19.02;16.93;;;;;;;14.95;87.96;101063.30;1638726;85;21344;-79
2022/10/23 11:51:32;;;;;;;20.62;17.32;;;;;;;15.03;87.92;101055.28;1636340;85;20975;-79
2022/10/23 11:54:23;;;;;;;19.37;17.27;;;;;;;15.09;87.93;101057.69;1644419;85;21403;-79
2022/10/23 11:57:14;;;;;;;22.17;16.95;;;;;;;15.13;87.86;101064.08;1634682;85;21542;-76
2022/10/23 11:59:59;;;;;;;18.82;15.98;;;;;;;15.16;87.82;101063.14;1639421;85;20933;-77
2022/10/23 12:02:52;;;;;;;21.05;14.80;;;;;;;15.16;87.76;101064.44;1646584;85;20977;-77
2022/10/23 12:05:41;;;;;;;17.07;13.88;;;;;;;15.18;87.77;101057.44;1640765;84;21563;-77
2022/10/23 12:08:29;;;;;;;19.62;13.60;;;;;;;15.17;87.72;101047.47;1626561;85;20999;-77
2022/10/23 12:11:41;;;;;;;19.52;14.85;;;;;;;15.16;87.65;101051.42;1629197;85;20931;-77
2022/10/23 12:14:42;;;;;;;17.05;12.95;;;;;;;15.18;87.69;101045.72;1639419;85;20986;-77
2022/10/23 12:17:35;;;;;;;19.77;13.50;;;;;;;15.21;87.70;101044.33;1627304;86;21001;-77
2022/10/23 12:20:34;;;;;;;18.32;13.13;;;;;;;15.24;87.63;101039.89;1628014;86;20971;-77
2022/10/23 12:23:48;;;;;;;17.32;13.00;;;;;;;15.25;87.64;101038.14;1641150;85;21020;-77
2022/10/23 12:27:01;;;;;;;18.10;13.58;;;;;;;15.31;87.71;101037.96;1647867;85;20987;-77
2022/10/23 12:30:14;;;;;;;16.52;12.70;;;;;;;15.36;87.68;101032.63;1624490;86;21034;-77
2022/10/23 12:33:13;;;;;;;20.97;13.50;;;;;;;15.40;87.56;101029.87;1640431;86;21435;-77
2022/10/23 12:36:27;;;;;;;16.80;12.58;;;;;;;15.43;87.51;101035.45;1643577;86;21018;-77
2022/10/23 12:39:35;;;;;;;24.23;13.20;;;;;;;15.42;87.43;101032.44;1613296;86;21568;-77
2022/10/23 12:42:28;;;;;;;14.35;12.33;;;;;;;15.41;87.49;101023.77;1628957;85;20987;-80
2022/10/23 12:45:23;;;;;;;14.85;12.70;;;;;;;15.43;87.49;101019.37;1646658;86;20962;-80
2022/10/23 12:48:18;;;;;;;18.45;12.28;;;;;;;15.47;87.49;101026.64;1645324;85;20929;-80
2022/10/23 12:51:03;;;;;;;21.00;13.93;;;;;;;15.54;87.56;101029.03;1647163;85;21792;-80
2022/10/23 12:53:51;;;;;;;15.32;13.25;;;;;;;15.60;87.55;101021.47;1633306;86;20979;-80
2022/10/23 12:56:37;;;;;;;17.30;12.43;;;;;;;15.60;87.31;101020.17;1648029;84;20927;-80
2022/10/23 12:59:38;;;;;;;15.88;13.35;;;;;;;15.63;87.38;101019.22;1632753;85;20951;-80
2022/10/23 13:02:26;;;;;;;19.37;12.95;;;;;;;15.62;87.29;101011.00;1641812;86;21426;-80